sensor_id;sensor_type;location;lat;lon;timestamp;pressure;altitude;pressure_sealevel;temperature;humidity
6433;BME280;3249;42.690;23.260;2023-04-10T00:00:18;94297.31;;;5.75;100.00
6433;BME280;3249;42.690;23.260;2023-04-10T00:02:47;94338.94;;;5.97;100.00
6433;BME280;3249;42.690;23.260;2023-04-10T00:05:16;94340.28;;;5.93;100.00
6433;BME280;3249;42.690;23.260;2023-04-10T00:07:46;94338.81;;;6.05;100.00
6433;BME280;3249;42.690;23.260;2023-04-10T00:10:15;94342.75;;;6.07;100.00
6433;BME280;3249;42.690;23.260;2023-04-10T00:12:44;94327.75;;;5.98;100.00
6433;BME280;3249;42.690;23.260;2023-04-10T00:15:13;94333.66;;;5.98;100.00
6433;BME280;3249;42.690;23.260;2023-04-10T00:17:44;94325.19;;;5.98;100.00
6433;BME280;3249;42.690;23.260;2023-04-10T00:20:16;94327.13;;;5.96;100.00
6433;BME280;3249;42.690;23.260;2023-04-10T00:22:45;94324.69;;;6.09;100.00
6433;BME280;3249;42.690;23.260;2023-04-10T00:25:14;94326.06;;;6.11;100.00
6433;BME280;3249;42.690;23.260;2023-04-10T00:27:43;94329.34;;;6.05;100.00
6433;BME280;3249;42.690;23.260;2023-04-10T00:30:12;94324.25;;;6.05;100.00
6433;BME280;3249;42.690;23.260;2023-04-10T00:32:43;94321.69;;;6.05;100.00
6433;BME280;3249;42.690;23.260;2023-04-10T00:35:13;94323.53;;;6.18;100.00
6433;BME280;3249;42.690;23.260;2023-04-10T00:37:42;94311.19;;;6.28;100.00
6433;BME280;3249;42.690;23.260;2023-04-10T00:40:11;94323.78;;;6.29;100.00
6433;BME280;3249;42.690;23.260;2023-04-10T00:42:40;94321.94;;;6.10;100.00
6433;BME280;3249;42.690;23.260;2023-04-10T00:45:09;94316.41;;;6.07;100.00
6433;BME280;3249;42.690;23.260;2023-04-10T00:47:39;94321.53;;;6.13;100.00
6433;BME280;3249;42.690;23.260;2023-04-10T00:50:11;94326.28;;;6.16;100.00
6433;BME280;3249;42.690;23.260;2023-04-10T00:52:40;94319.66;;;6.28;100.00
6433;BME280;3249;42.690;23.260;2023-04-10T00:55:10;94310.16;;;6.16;100.00
6433;BME280;3249;42.690;23.260;2023-04-10T00:57:41;94323.88;;;6.08;100.00
6433;BME280;3249;42.690;23.260;2023-04-10T01:00:12;94324.63;;;6.02;100.00
6433;BME280;3249;42.690;23.260;2023-04-10T01:02:42;94318.19;;;6.06;100.00
6433;BME280;3249;42.690;23.260;2023-04-10T01:05:14;94321.06;;;5.97;100.00
6433;BME280;3249;42.690;23.260;2023-04-10T01:07:53;94314.16;;;5.97;100.00
6433;BME280;3249;42.690;23.260;2023-04-10T01:10:28;94271.66;;;5.62;100.00
6433;BME280;3249;42.690;23.260;2023-04-10T01:13:07;94305.31;;;5.93;100.00
6433;BME280;3249;42.690;23.260;2023-04-10T01:15:43;94268.94;;;5.64;100.00
6433;BME280;3249;42.690;23.260;2023-04-10T01:18:18;94297.06;;;5.91;100.00
6433;BME280;3249;42.690;23.260;2023-04-10T01:20:52;94303.72;;;5.92;100.00
6433;BME280;3249;42.690;23.260;2023-04-10T01:23:49;94303.28;;;5.82;100.00
6433;BME280;3249;42.690;23.260;2023-04-10T01:26:35;94291.19;;;5.70;100.00
6433;BME280;3249;42.690;23.260;2023-04-10T01:29:13;94302.63;;;5.80;100.00
6433;BME280;3249;42.690;23.260;2023-04-10T01:31:51;94296.84;;;5.65;100.00
6433;BME280;3249;42.690;23.260;2023-04-10T01:34:25;94295.09;;;5.66;100.00
6433;BME280;3249;42.690;23.260;2023-04-10T01:36:58;94290.47;;;5.55;100.00
6433;BME280;3249;42.690;23.260;2023-04-10T01:39:29;94289.25;;;5.51;100.00
6433;BME280;3249;42.690;23.260;2023-04-10T01:42:04;94292.53;;;5.66;100.00
6433;BME280;3249;42.690;23.260;2023-04-10T01:44:41;94289.41;;;5.70;100.00
6433;BME280;3249;42.690;23.260;2023-04-10T01:47:13;94291.41;;;5.75;100.00
6433;BME280;3249;42.690;23.260;2023-04-10T01:49:44;94294.50;;;5.70;100.00
6433;BME280;3249;42.690;23.260;2023-04-10T01:52:14;94286.63;;;5.65;100.00
6433;BME280;3249;42.690;23.260;2023-04-10T01:54:50;94294.78;;;5.54;100.00
6433;BME280;3249;42.690;23.260;2023-04-10T01:57:25;94302.03;;;5.51;100.00
6433;BME280;3249;42.690;23.260;2023-04-10T02:00:00;94287.91;;;5.55;100.00
6433;BME280;3249;42.690;23.260;2023-04-10T02:02:32;94283.19;;;5.52;100.00
6433;BME280;3249;42.690;23.260;2023-04-10T02:05:05;94291.63;;;5.52;100.00
6433;BME280;3249;42.690;23.260;2023-04-10T02:07:41;94289.31;;;5.57;100.00
6433;BME280;3249;42.690;23.260;2023-04-10T02:10:18;94286.53;;;5.52;100.00
6433;BME280;3249;42.690;23.260;2023-04-10T02:12:51;94296.84;;;5.65;100.00
6433;BME280;3249;42.690;23.260;2023-04-10T02:15:27;94290.16;;;5.64;100.00
6433;BME280;3249;42.690;23.260;2023-04-10T02:17:58;94288.63;;;5.70;100.00
6433;BME280;3249;42.690;23.260;2023-04-10T02:20:29;94251.91;;;5.43;100.00
6433;BME280;3249;42.690;23.260;2023-04-10T02:22:59;94279.31;;;5.62;100.00
6433;BME280;3249;42.690;23.260;2023-04-10T02:25:30;94256.09;;;5.51;100.00
6433;BME280;3249;42.690;23.260;2023-04-10T02:28:03;94275.03;;;5.63;100.00
6433;BME280;3249;42.690;23.260;2023-04-10T02:30:35;94278.22;;;5.71;100.00
6433;BME280;3249;42.690;23.260;2023-04-10T02:33:04;94275.28;;;5.74;100.00
6433;BME280;3249;42.690;23.260;2023-04-10T02:35:33;94268.94;;;5.64;100.00
6433;BME280;3249;42.690;23.260;2023-04-10T02:38:02;94230.88;;;5.41;100.00
6433;BME280;3249;42.690;23.260;2023-04-10T02:40:35;94221.56;;;5.27;100.00
6433;BME280;3249;42.690;23.260;2023-04-10T02:43:13;94253.34;;;5.52;100.00
6433;BME280;3249;42.690;23.260;2023-04-10T02:45:46;94250.13;;;5.44;100.00
6433;BME280;3249;42.690;23.260;2023-04-10T02:48:21;94248.16;;;5.39;100.00
6433;BME280;3249;42.690;23.260;2023-04-10T02:50:56;94243.78;;;5.33;100.00
6433;BME280;3249;42.690;23.260;2023-04-10T02:53:27;94244.88;;;5.24;100.00
6433;BME280;3249;42.690;23.260;2023-04-10T02:55:59;94237.59;;;5.21;100.00
6433;BME280;3249;42.690;23.260;2023-04-10T02:58:29;94243.63;;;5.14;100.00
6433;BME280;3249;42.690;23.260;2023-04-10T03:01:03;94239.13;;;5.16;100.00
6433;BME280;3249;42.690;23.260;2023-04-10T03:03:41;94235.94;;;5.07;100.00
6433;BME280;3249;42.690;23.260;2023-04-10T03:06:12;94230.38;;;5.03;100.00
6433;BME280;3249;42.690;23.260;2023-04-10T03:08:43;94241.97;;;5.06;100.00
6433;BME280;3249;42.690;23.260;2023-04-10T03:11:12;94227.56;;;4.92;100.00
6433;BME280;3249;42.690;23.260;2023-04-10T03:13:41;94236.94;;;4.91;100.00
6433;BME280;3249;42.690;23.260;2023-04-10T03:16:13;94234.75;;;4.88;100.00
6433;BME280;3249;42.690;23.260;2023-04-10T03:18:42;94242.63;;;4.87;100.00
6433;BME280;3249;42.690;23.260;2023-04-10T03:21:11;94242.75;;;4.79;100.00
6433;BME280;3249;42.690;23.260;2023-04-10T03:23:41;94247.22;;;4.77;100.00
6433;BME280;3249;42.690;23.260;2023-04-10T03:26:10;94243.69;;;4.78;100.00
6433;BME280;3249;42.690;23.260;2023-04-10T03:28:40;94231.56;;;4.59;100.00
6433;BME280;3249;42.690;23.260;2023-04-10T03:31:10;94248.59;;;4.58;100.00
6433;BME280;3249;42.690;23.260;2023-04-10T03:33:44;94242.88;;;4.56;100.00
6433;BME280;3249;42.690;23.260;2023-04-10T03:36:13;94241.13;;;4.57;100.00
6433;BME280;3249;42.690;23.260;2023-04-10T03:38:44;94245.72;;;4.47;100.00
6433;BME280;3249;42.690;23.260;2023-04-10T03:41:13;94243.38;;;4.45;100.00
6433;BME280;3249;42.690;23.260;2023-04-10T03:43:42;94244.59;;;4.35;100.00
6433;BME280;3249;42.690;23.260;2023-04-10T03:46:12;94248.91;;;4.34;100.00
6433;BME280;3249;42.690;23.260;2023-04-10T03:48:46;94249.69;;;4.35;100.00
6433;BME280;3249;42.690;23.260;2023-04-10T03:51:16;94246.53;;;4.33;100.00
6433;BME280;3249;42.690;23.260;2023-04-10T03:53:46;94246.91;;;4.30;100.00
6433;BME280;3249;42.690;23.260;2023-04-10T03:56:15;94252.34;;;4.27;100.00
6433;BME280;3249;42.690;23.260;2023-04-10T03:58:45;94253.66;;;4.23;100.00
6433;BME280;3249;42.690;23.260;2023-04-10T04:01:15;94257.81;;;4.24;100.00
6433;BME280;3249;42.690;23.260;2023-04-10T04:04:01;94249.91;;;4.19;100.00
6433;BME280;3249;42.690;23.260;2023-04-10T04:06:48;94264.06;;;4.21;100.00
6433;BME280;3249;42.690;23.260;2023-04-10T04:09:26;94270.38;;;4.25;100.00
6433;BME280;3249;42.690;23.260;2023-04-10T04:12:15;94268.78;;;4.24;100.00
6433;BME280;3249;42.690;23.260;2023-04-10T04:15:09;94273.94;;;4.31;100.00
6433;BME280;3249;42.690;23.260;2023-04-10T04:18:02;94255.53;;;4.29;100.00
6433;BME280;3249;42.690;23.260;2023-04-10T04:20:33;94275.06;;;4.43;100.00
6433;BME280;3249;42.690;23.260;2023-04-10T04:23:13;94259.53;;;4.38;100.00
6433;BME280;3249;42.690;23.260;2023-04-10T04:26:01;94267.41;;;4.43;100.00
6433;BME280;3249;42.690;23.260;2023-04-10T04:28:48;94274.25;;;4.57;100.00
6433;BME280;3249;42.690;23.260;2023-04-10T04:31:37;94273.56;;;4.63;100.00
6433;BME280;3249;42.690;23.260;2023-04-10T04:34:32;94276.00;;;4.71;100.00
6433;BME280;3249;42.690;23.260;2023-04-10T04:37:14;94284.25;;;4.94;100.00
6433;BME280;3249;42.690;23.260;2023-04-10T04:40:07;94281.28;;;5.12;100.00
6433;BME280;3249;42.690;23.260;2023-04-10T04:43:00;94289.72;;;5.33;100.00
6433;BME280;3249;42.690;23.260;2023-04-10T04:45:48;94290.78;;;5.45;100.00
6433;BME280;3249;42.690;23.260;2023-04-10T04:48:37;94298.41;;;5.66;100.00
6433;BME280;3249;42.690;23.260;2023-04-10T04:51:29;94301.22;;;5.50;100.00
6433;BME280;3249;42.690;23.260;2023-04-10T04:54:06;94293.06;;;5.82;100.00
6433;BME280;3249;42.690;23.260;2023-04-10T04:57:07;94293.97;;;6.02;100.00
6433;BME280;3249;42.690;23.260;2023-04-10T05:00:15;94303.25;;;6.10;100.00
6433;BME280;3249;42.690;23.260;2023-04-10T05:03:01;94305.59;;;6.05;100.00
6433;BME280;3249;42.690;23.260;2023-04-10T05:05:55;94311.47;;;6.05;100.00
6433;BME280;3249;42.690;23.260;2023-04-10T05:08:33;94310.56;;;6.13;100.00
6433;BME280;3249;42.690;23.260;2023-04-10T05:11:20;94306.25;;;6.20;100.00
6433;BME280;3249;42.690;23.260;2023-04-10T05:14:15;94312.97;;;6.27;100.00
6433;BME280;3249;42.690;23.260;2023-04-10T05:17:05;94310.91;;;6.44;100.00
6433;BME280;3249;42.690;23.260;2023-04-10T05:20:07;94313.72;;;6.55;100.00
6433;BME280;3249;42.690;23.260;2023-04-10T05:22:55;94316.47;;;6.60;100.00
6433;BME280;3249;42.690;23.260;2023-04-10T05:25:42;94316.22;;;6.42;100.00
6433;BME280;3249;42.690;23.260;2023-04-10T05:28:21;94316.03;;;6.44;100.00
6433;BME280;3249;42.690;23.260;2023-04-10T05:31:16;94309.91;;;6.38;100.00
6433;BME280;3249;42.690;23.260;2023-04-10T05:34:09;94316.69;;;6.65;100.00
6433;BME280;3249;42.690;23.260;2023-04-10T05:36:51;94317.94;;;6.35;100.00
6433;BME280;3249;42.690;23.260;2023-04-10T05:39:46;94314.94;;;6.66;100.00
6433;BME280;3249;42.690;23.260;2023-04-10T05:42:51;94319.34;;;6.91;100.00
6433;BME280;3249;42.690;23.260;2023-04-10T05:45:36;94318.69;;;6.70;100.00
6433;BME280;3249;42.690;23.260;2023-04-10T05:48:18;94313.81;;;6.34;100.00
6433;BME280;3249;42.690;23.260;2023-04-10T05:51:11;94316.94;;;6.30;100.00
6433;BME280;3249;42.690;23.260;2023-04-10T05:53:56;94321.03;;;6.71;100.00
6433;BME280;3249;42.690;23.260;2023-04-10T05:56:45;94319.16;;;6.46;100.00
6433;BME280;3249;42.690;23.260;2023-04-10T05:59:43;94326.16;;;6.71;100.00
6433;BME280;3249;42.690;23.260;2023-04-10T06:02:33;94323.53;;;7.05;100.00
6433;BME280;3249;42.690;23.260;2023-04-10T06:05:06;94304.25;;;7.16;100.00
6433;BME280;3249;42.690;23.260;2023-04-10T06:07:36;94327.50;;;7.47;100.00
6433;BME280;3249;42.690;23.260;2023-04-10T06:10:08;94333.78;;;7.18;100.00
6433;BME280;3249;42.690;23.260;2023-04-10T06:12:38;94328.59;;;6.99;100.00
6433;BME280;3249;42.690;23.260;2023-04-10T06:15:10;94324.94;;;7.27;100.00
6433;BME280;3249;42.690;23.260;2023-04-10T06:17:44;94326.22;;;6.97;100.00
6433;BME280;3249;42.690;23.260;2023-04-10T06:20:14;94328.94;;;6.83;100.00
6433;BME280;3249;42.690;23.260;2023-04-10T06:22:43;94317.00;;;6.96;100.00
6433;BME280;3249;42.690;23.260;2023-04-10T06:25:12;94321.91;;;6.91;100.00
6433;BME280;3249;42.690;23.260;2023-04-10T06:27:41;94319.19;;;7.12;100.00
6433;BME280;3249;42.690;23.260;2023-04-10T06:30:10;94297.56;;;7.34;100.00
6433;BME280;3249;42.690;23.260;2023-04-10T06:32:40;94324.41;;;7.71;100.00
6433;BME280;3249;42.690;23.260;2023-04-10T06:35:12;94318.09;;;7.80;100.00
6433;BME280;3249;42.690;23.260;2023-04-10T06:37:41;94318.88;;;7.87;100.00
6433;BME280;3249;42.690;23.260;2023-04-10T06:40:12;94325.72;;;8.06;100.00
6433;BME280;3249;42.690;23.260;2023-04-10T06:42:42;94319.25;;;7.90;100.00
6433;BME280;3249;42.690;23.260;2023-04-10T06:45:22;94326.75;;;7.72;100.00
6433;BME280;3249;42.690;23.260;2023-04-10T06:47:51;94330.88;;;7.60;100.00
6433;BME280;3249;42.690;23.260;2023-04-10T06:50:23;94331.88;;;7.98;100.00
6433;BME280;3249;42.690;23.260;2023-04-10T06:52:52;94327.53;;;7.92;100.00
6433;BME280;3249;42.690;23.260;2023-04-10T06:55:24;94333.25;;;7.62;100.00
6433;BME280;3249;42.690;23.260;2023-04-10T06:57:53;94330.69;;;7.81;100.00
6433;BME280;3249;42.690;23.260;2023-04-10T07:00:22;94335.59;;;8.09;100.00
6433;BME280;3249;42.690;23.260;2023-04-10T07:02:51;94342.69;;;8.33;100.00
6433;BME280;3249;42.690;23.260;2023-04-10T07:05:23;94308.56;;;8.19;100.00
6433;BME280;3249;42.690;23.260;2023-04-10T07:07:52;94341.69;;;8.34;100.00
6433;BME280;3249;42.690;23.260;2023-04-10T07:10:21;94343.66;;;8.38;100.00
6433;BME280;3249;42.690;23.260;2023-04-10T07:12:50;94331.19;;;8.61;100.00
6433;BME280;3249;42.690;23.260;2023-04-10T07:15:22;94335.47;;;8.80;100.00
6433;BME280;3249;42.690;23.260;2023-04-10T07:17:51;94337.72;;;9.01;100.00
6433;BME280;3249;42.690;23.260;2023-04-10T07:20:23;94311.09;;;8.96;100.00
6433;BME280;3249;42.690;23.260;2023-04-10T07:22:53;94339.06;;;9.10;100.00
6433;BME280;3249;42.690;23.260;2023-04-10T07:25:21;94354.81;;;9.20;100.00
6433;BME280;3249;42.690;23.260;2023-04-10T07:27:50;94346.19;;;9.08;100.00
6433;BME280;3249;42.690;23.260;2023-04-10T07:30:19;94347.91;;;9.14;100.00
6433;BME280;3249;42.690;23.260;2023-04-10T07:32:48;94346.75;;;8.66;100.00
6433;BME280;3249;42.690;23.260;2023-04-10T07:35:17;94340.78;;;8.79;100.00
6433;BME280;3249;42.690;23.260;2023-04-10T07:37:49;94350.56;;;9.01;100.00
6433;BME280;3249;42.690;23.260;2023-04-10T07:40:19;94354.81;;;8.70;100.00
6433;BME280;3249;42.690;23.260;2023-04-10T07:42:49;94348.31;;;8.67;100.00
6433;BME280;3249;42.690;23.260;2023-04-10T07:45:18;94348.31;;;8.67;100.00
6433;BME280;3249;42.690;23.260;2023-04-10T07:47:47;94348.50;;;8.79;100.00
6433;BME280;3249;42.690;23.260;2023-04-10T07:50:16;94344.25;;;8.97;100.00
6433;BME280;3249;42.690;23.260;2023-04-10T07:52:45;94336.09;;;9.13;100.00
6433;BME280;3249;42.690;23.260;2023-04-10T07:55:17;94321.69;;;9.12;100.00
6433;BME280;3249;42.690;23.260;2023-04-10T07:57:46;94356.03;;;9.11;100.00
6433;BME280;3249;42.690;23.260;2023-04-10T08:00:17;94344.31;;;8.84;100.00
6433;BME280;3249;42.690;23.260;2023-04-10T08:02:46;94341.31;;;8.87;100.00
6433;BME280;3249;42.690;23.260;2023-04-10T08:05:15;94345.13;;;8.78;100.00
6433;BME280;3249;42.690;23.260;2023-04-10T08:07:44;94344.31;;;8.84;100.00
6433;BME280;3249;42.690;23.260;2023-04-10T08:10:16;94351.78;;;8.86;100.00
6433;BME280;3249;42.690;23.260;2023-04-10T08:12:45;94310.84;;;9.04;100.00
6433;BME280;3249;42.690;23.260;2023-04-10T08:15:14;94355.56;;;9.58;100.00
6433;BME280;3249;42.690;23.260;2023-04-10T08:17:43;94349.72;;;9.76;100.00
6433;BME280;3249;42.690;23.260;2023-04-10T08:20:12;94345.38;;;9.45;100.00
6433;BME280;3249;42.690;23.260;2023-04-10T08:22:41;94338.13;;;9.36;100.00
6433;BME280;3249;42.690;23.260;2023-04-10T08:25:10;94345.78;;;9.74;100.00
6433;BME280;3249;42.690;23.260;2023-04-10T08:27:42;94350.00;;;9.93;97.60
6433;BME280;3249;42.690;23.260;2023-04-10T08:30:12;94340.78;;;10.10;94.04
6433;BME280;3249;42.690;23.260;2023-04-10T08:32:41;94341.56;;;10.10;91.02
6433;BME280;3249;42.690;23.260;2023-04-10T08:35:09;94352.94;;;10.45;89.18
6433;BME280;3249;42.690;23.260;2023-04-10T08:37:38;94354.25;;;10.30;85.48
6433;BME280;3249;42.690;23.260;2023-04-10T08:40:08;94348.97;;;10.25;88.14
6433;BME280;3249;42.690;23.260;2023-04-10T08:42:37;94346.13;;;9.84;92.67
6433;BME280;3249;42.690;23.260;2023-04-10T08:45:10;94348.59;;;9.97;94.85
6433;BME280;3249;42.690;23.260;2023-04-10T08:47:40;94345.09;;;10.16;91.58
6433;BME280;3249;42.690;23.260;2023-04-10T08:50:12;94343.88;;;10.36;88.83
6433;BME280;3249;42.690;23.260;2023-04-10T08:52:43;94338.34;;;10.57;86.98
6433;BME280;3249;42.690;23.260;2023-04-10T08:55:14;94346.22;;;10.62;85.04
6433;BME280;3249;42.690;23.260;2023-04-10T08:57:43;94333.19;;;10.39;90.11
6433;BME280;3249;42.690;23.260;2023-04-10T09:00:16;94333.63;;;10.54;84.40
6433;BME280;3249;42.690;23.260;2023-04-10T09:02:45;94344.75;;;10.48;83.29
6433;BME280;3249;42.690;23.260;2023-04-10T09:05:16;94335.03;;;10.32;84.59
6433;BME280;3249;42.690;23.260;2023-04-10T09:07:45;94325.78;;;10.00;89.62
6433;BME280;3249;42.690;23.260;2023-04-10T09:10:14;94319.25;;;10.29;87.91
6433;BME280;3249;42.690;23.260;2023-04-10T09:12:44;94324.47;;;10.58;83.88
6433;BME280;3249;42.690;23.260;2023-04-10T09:15:16;94328.38;;;10.97;83.36
6433;BME280;3249;42.690;23.260;2023-04-10T09:17:56;94327.44;;;10.91;77.94
6433;BME280;3249;42.690;23.260;2023-04-10T09:20:28;94329.44;;;11.07;78.45
6433;BME280;3249;42.690;23.260;2023-04-10T09:22:57;94319.41;;;11.17;79.77
6433;BME280;3249;42.690;23.260;2023-04-10T09:25:34;94291.19;;;10.75;76.49
6433;BME280;3249;42.690;23.260;2023-04-10T09:28:05;94317.53;;;10.77;80.17
6433;BME280;3249;42.690;23.260;2023-04-10T09:30:38;94313.81;;;10.55;82.08
6433;BME280;3249;42.690;23.260;2023-04-10T09:33:21;94315.69;;;10.48;82.75
6433;BME280;3249;42.690;23.260;2023-04-10T09:35:52;94308.16;;;10.28;82.54
6433;BME280;3249;42.690;23.260;2023-04-10T09:38:21;94306.97;;;10.49;79.16
6433;BME280;3249;42.690;23.260;2023-04-10T09:40:51;94313.41;;;10.40;76.54
6433;BME280;3249;42.690;23.260;2023-04-10T09:43:21;94303.34;;;10.14;76.13
6433;BME280;3249;42.690;23.260;2023-04-10T09:45:55;94304.72;;;10.16;78.02
6433;BME280;3249;42.690;23.260;2023-04-10T09:48:24;94308.00;;;10.23;79.60
6433;BME280;3249;42.690;23.260;2023-04-10T09:50:54;94321.13;;;10.40;77.36
6433;BME280;3249;42.690;23.260;2023-04-10T09:53:23;94317.66;;;10.46;75.13
6433;BME280;3249;42.690;23.260;2023-04-10T09:55:52;94305.78;;;10.27;75.66
6433;BME280;3249;42.690;23.260;2023-04-10T09:58:23;94314.38;;;10.21;74.90
6433;BME280;3249;42.690;23.260;2023-04-10T10:00:56;94312.34;;;10.23;75.57
6433;BME280;3249;42.690;23.260;2023-04-10T10:03:25;94303.72;;;10.35;75.85
6433;BME280;3249;42.690;23.260;2023-04-10T10:05:55;94304.06;;;10.39;71.43
6433;BME280;3249;42.690;23.260;2023-04-10T10:08:25;94309.19;;;10.45;68.37
6433;BME280;3249;42.690;23.260;2023-04-10T10:10:55;94317.66;;;10.46;71.15
6433;BME280;3249;42.690;23.260;2023-04-10T10:13:37;94306.09;;;10.73;69.89
6433;BME280;3249;42.690;23.260;2023-04-10T10:16:15;94307.69;;;11.03;65.38
6433;BME280;3249;42.690;23.260;2023-04-10T10:18:51;94266.88;;;10.89;63.90
6433;BME280;3249;42.690;23.260;2023-04-10T10:21:22;94288.88;;;11.03;65.71
6433;BME280;3249;42.690;23.260;2023-04-10T10:23:54;94293.13;;;11.27;64.09
6433;BME280;3249;42.690;23.260;2023-04-10T10:26:24;94290.56;;;11.38;66.70
6433;BME280;3249;42.690;23.260;2023-04-10T10:28:55;94294.56;;;11.23;60.51
6433;BME280;3249;42.690;23.260;2023-04-10T10:31:27;94291.28;;;11.16;61.87
6433;BME280;3249;42.690;23.260;2023-04-10T10:36:43;94291.44;;;11.32;58.04
6433;BME280;3249;42.690;23.260;2023-04-10T10:39:21;94287.59;;;10.94;62.20
6433;BME280;3249;42.690;23.260;2023-04-10T10:41:58;94286.09;;;10.57;66.44
6433;BME280;3249;42.690;23.260;2023-04-10T10:44:38;94233.28;;;9.94;74.96
6433;BME280;3249;42.690;23.260;2023-04-10T10:47:17;94267.41;;;10.43;76.17
6433;BME280;3249;42.690;23.260;2023-04-10T10:49:55;94260.69;;;10.24;79.62
6433;BME280;3249;42.690;23.260;2023-04-10T10:52:43;94272.00;;;10.41;77.62
6433;BME280;3249;42.690;23.260;2023-04-10T10:55:30;94264.47;;;10.04;82.97
6433;BME280;3249;42.690;23.260;2023-04-10T10:58:01;94261.84;;;9.86;78.66
6433;BME280;3249;42.690;23.260;2023-04-10T11:03:31;94265.56;;;9.90;76.18
6433;BME280;3249;42.690;23.260;2023-04-10T11:06:02;94252.91;;;9.88;70.22
6433;BME280;3249;42.690;23.260;2023-04-10T11:08:39;94243.69;;;10.05;68.65
6433;BME280;3249;42.690;23.260;2023-04-10T11:11:16;94239.53;;;10.40;68.40
6433;BME280;3249;42.690;23.260;2023-04-10T11:14:11;94241.84;;;10.78;62.69
6433;BME280;3249;42.690;23.260;2023-04-10T11:16:44;94254.13;;;10.94;61.60
6433;BME280;3249;42.690;23.260;2023-04-10T11:19:16;94245.94;;;11.26;61.07
6433;BME280;3249;42.690;23.260;2023-04-10T11:22:00;94185.13;;;11.37;58.14
6433;BME280;3249;42.690;23.260;2023-04-10T11:24:51;94239.66;;;11.86;56.03
6433;BME280;3249;42.690;23.260;2023-04-10T11:27:36;94234.19;;;11.19;71.42
6433;BME280;3249;42.690;23.260;2023-04-10T11:30:26;94242.84;;;10.95;76.00
6433;BME280;3249;42.690;23.260;2023-04-10T11:32:56;94216.81;;;10.55;74.20
6433;BME280;3249;42.690;23.260;2023-04-10T11:35:27;94225.25;;;10.44;67.95
6433;BME280;3249;42.690;23.260;2023-04-10T11:38:11;94232.84;;;10.39;70.05
6433;BME280;3249;42.690;23.260;2023-04-10T11:40:54;94233.59;;;10.04;70.39
6433;BME280;3249;42.690;23.260;2023-04-10T11:43:23;94234.72;;;10.14;68.82
6433;BME280;3249;42.690;23.260;2023-04-10T11:46:01;94238.63;;;9.92;69.35
6433;BME280;3249;42.690;23.260;2023-04-10T11:48:43;94232.72;;;9.92;73.12
6433;BME280;3249;42.690;23.260;2023-04-10T11:51:14;94233.19;;;10.25;74.10
6433;BME280;3249;42.690;23.260;2023-04-10T11:53:44;94237.72;;;10.59;72.90
6433;BME280;3249;42.690;23.260;2023-04-10T11:56:17;94236.53;;;10.61;73.75
6433;BME280;3249;42.690;23.260;2023-04-10T11:58:48;94198.06;;;10.66;71.02
6433;BME280;3249;42.690;23.260;2023-04-10T12:01:20;94224.75;;;10.83;73.62
6433;BME280;3249;42.690;23.260;2023-04-10T12:03:49;94214.25;;;10.96;78.42
6433;BME280;3249;42.690;23.260;2023-04-10T12:06:21;94228.16;;;10.95;79.03
6433;BME280;3249;42.690;23.260;2023-04-10T12:08:50;94209.41;;;10.88;78.75
6433;BME280;3249;42.690;23.260;2023-04-10T12:11:20;94219.34;;;10.73;81.04
6433;BME280;3249;42.690;23.260;2023-04-10T12:13:51;94207.25;;;10.26;84.80
6433;BME280;3249;42.690;23.260;2023-04-10T12:16:21;94208.97;;;10.32;85.62
6433;BME280;3249;42.690;23.260;2023-04-10T12:18:51;94213.94;;;9.91;86.93
6433;BME280;3249;42.690;23.260;2023-04-10T12:21:23;94218.84;;;9.75;93.29
6433;BME280;3249;42.690;23.260;2023-04-10T12:23:52;94209.50;;;9.37;93.59
6433;BME280;3249;42.690;23.260;2023-04-10T12:26:21;94215.16;;;9.21;100.00
6433;BME280;3249;42.690;23.260;2023-04-10T12:28:51;94219.84;;;9.00;100.00
6433;BME280;3249;42.690;23.260;2023-04-10T12:31:28;94233.53;;;8.50;100.00
6433;BME280;3249;42.690;23.260;2023-04-10T12:33:58;94224.69;;;8.39;100.00
6433;BME280;3249;42.690;23.260;2023-04-10T12:36:31;94228.97;;;7.88;100.00
6433;BME280;3249;42.690;23.260;2023-04-10T12:39:01;94235.69;;;7.76;100.00
6433;BME280;3249;42.690;23.260;2023-04-10T12:41:32;94226.25;;;7.70;100.00
6433;BME280;3249;42.690;23.260;2023-04-10T12:44:11;94231.78;;;7.28;100.00
6433;BME280;3249;42.690;23.260;2023-04-10T12:46:41;94225.66;;;6.90;100.00
6433;BME280;3249;42.690;23.260;2023-04-10T12:49:12;94241.13;;;6.63;100.00
6433;BME280;3249;42.690;23.260;2023-04-10T12:51:48;94240.28;;;6.43;100.00
6433;BME280;3249;42.690;23.260;2023-04-10T12:54:28;94240.31;;;6.49;100.00
6433;BME280;3249;42.690;23.260;2023-04-10T12:56:58;94229.53;;;6.60;100.00
6433;BME280;3249;42.690;23.260;2023-04-10T12:59:29;94221.75;;;6.94;100.00
6433;BME280;3249;42.690;23.260;2023-04-10T13:01:58;94198.13;;;7.25;100.00
6433;BME280;3249;42.690;23.260;2023-04-10T13:04:28;94194.16;;;7.61;100.00
6433;BME280;3249;42.690;23.260;2023-04-10T13:07:00;94204.94;;;7.89;100.00
6433;BME280;3249;42.690;23.260;2023-04-10T13:09:29;94198.31;;;8.19;100.00
6433;BME280;3249;42.690;23.260;2023-04-10T13:11:58;94195.41;;;8.60;100.00
6433;BME280;3249;42.690;23.260;2023-04-10T13:14:28;94186.25;;;8.70;100.00
6433;BME280;3249;42.690;23.260;2023-04-10T13:16:58;94193.28;;;8.50;100.00
6433;BME280;3249;42.690;23.260;2023-04-10T13:19:26;94203.81;;;8.73;100.00
6433;BME280;3249;42.690;23.260;2023-04-10T13:21:56;94189.94;;;9.12;100.00
6433;BME280;3249;42.690;23.260;2023-04-10T13:24:28;94187.38;;;9.36;100.00
6433;BME280;3249;42.690;23.260;2023-04-10T13:26:57;94192.13;;;9.57;100.00
6433;BME280;3249;42.690;23.260;2023-04-10T13:29:26;94180.63;;;9.60;100.00
6433;BME280;3249;42.690;23.260;2023-04-10T13:31:55;94180.66;;;9.96;100.00
6433;BME280;3249;42.690;23.260;2023-04-10T13:34:26;94171.44;;;9.71;100.00
6433;BME280;3249;42.690;23.260;2023-04-10T13:36:55;94171.59;;;9.94;100.00
6433;BME280;3249;42.690;23.260;2023-04-10T13:39:24;94173.06;;;10.01;100.00
6433;BME280;3249;42.690;23.260;2023-04-10T13:41:56;94166.03;;;9.97;100.00
6433;BME280;3249;42.690;23.260;2023-04-10T13:44:26;94167.63;;;10.16;100.00
6433;BME280;3249;42.690;23.260;2023-04-10T13:46:56;94167.47;;;10.11;100.00
6433;BME280;3249;42.690;23.260;2023-04-10T13:49:25;94169.31;;;10.04;98.58
6433;BME280;3249;42.690;23.260;2023-04-10T13:51:55;94170.88;;;9.87;100.00
6433;BME280;3249;42.690;23.260;2023-04-10T13:54:24;94138.44;;;9.86;100.00